メインページ
METAR-TAF:

METAR-TAF

空港 :

ブリスベン空港

ブリスベン, オーストラリア

緯度: 27-23S, 経度: 153-06E, 海抜: 4m

現時点の気象観測

当レポートは14分前の21:00(UTC)に作成
南/南西の風 8kt
気温 12°C
湿度 71%
気圧 1022 hPa
視程10km以上
1,500メートル以下は雲なし、積乱雲なし

METAR: YBBN 222100Z 21008KT CAVOK 12/07 Q1022 NOSIG

時間: 07:14 (21:14 UTC)

予報

当レポートは4時間13分前の17:01(UTC)に作成
予報は22日の 18時(UTC)から 23日の 24時(UTC)まで有効
南/南西の風 6kt
視程10km以上
高度3000ftの雲はほとんどない
23日の 0000時(UTC)から
南東の風 12kt
視程10km以上
高度3500ftの雲は散在している
23日の 0900時(UTC)から
の風 7kt
視程10km以上
高度3000ftの雲は散在している
23日の 1200時(UTC)から
の風 6kt
視程10km以上
高度2500ftの雲は散在している

TAF: YBBN 221701Z 2218/2324 20006KT 9999 FEW030 FM230000 14012KT 9999 SCT035 FM230900 17007KT 9999 SCT030 FM231200 19006KT 9999 SCT025

4,000以上の空港の気象観測と天気予報(METAR報とTAF報)

利用可能な観測所は地図上に黄色い丸と赤い丸で示す。

丸の上にカーソルを重ねると観測所名を参照できる。

次にクリックすると気象観測と天気予報を参照できる。

マップの切り替え:黒色「×」印の緑ボタンをクリックして拡大、「-」印の緑ボタンをクリックして縮小、緑色の三角印をクリックして隣りの地図に切り替え


METAR-TAF: